Главная страница
METAR-TAF:

METAR-TAF

Аэропорты :

Люксембург-Финдел

Люксембург, Люксембург

широта: 49-37N, долгота: 006-13E, высота над уровнем моря: 376 м

Текущие метеонаблюдения

Эта сводка был подготовлена 34 минут назад, в 16:20 UTC
Ветер 8 Узел от восточно-северо-восточный
Температура 14°C
Влажность 41%
Давление 1036 hPa
Видимость 10 км и более
Нет облачности ниже 1500 м, и нет кучево-дождевой облачности

METAR: ELLX 251620Z 07008KT CAVOK 14/01 Q1036 NOSIG

Время: 18:54 (16:54 UTC)

Прогноз

Эта сводка был подготовлена 5 часа и 54 минут назад, в 11:00 UTC
Прогноз действительный с 25-го 12 UTC до 26-го 18 UTC
Ветер 12 Узел от восточно-северо-восточный
Видимость 10 км и более
небольшая облачность на высоте 2500 фута
изменения
С 25-го 18 UTC до 25-го 21 UTC
Ветер 6 Узел от восточно-северо-восточный
изменения
С 26-го 08 UTC до 26-го 11 UTC
Ветер 10 Узел от юго-восточный

TAF: ELLX 251100Z 2512/2618 06012KT 9999 FEW025 BECMG 2518/2521 07006KT BECMG 2608/2611 13010KT

Метеонаблюдения и прогнозы для более 4000 аэропортов (сводки METAR и TAF).

Имеющиеся станции представлены на карте желтыми и красными точками.

Чтобы увидеть название станции, наведите на нее мышь.

Затем щелкните, чтобы увидеть метеонаблюдения и метеопрогнозы.

Управление картой: чтобы увеличить масштаб, щелкните зеленые кнопки с черным крестиком; чтобы уменьшить масштаб, щелкните зеленую кнопку с тире; для просмотра соседних карт щелкайте зеленые стрелки.


METAR-TAF: